sensor_id;sensor_type;location;lat;lon;timestamp;P1;durP1;ratioP1;P2;durP2;ratioP2
48805;SDS011;34625;47.176;27.548;2024-03-17T00:00:37;17.85;;;8.27;;
48805;SDS011;34625;47.176;27.548;2024-03-17T00:03:08;11.38;;;7.30;;
48805;SDS011;34625;47.176;27.548;2024-03-17T00:05:35;12.00;;;7.40;;
48805;SDS011;34625;47.176;27.548;2024-03-17T00:08:02;12.02;;;7.68;;
48805;SDS011;34625;47.176;27.548;2024-03-17T00:10:33;12.18;;;6.97;;
48805;SDS011;34625;47.176;27.548;2024-03-17T00:12:59;11.38;;;7.05;;
48805;SDS011;34625;47.176;27.548;2024-03-17T00:15:26;13.63;;;7.28;;
48805;SDS011;34625;47.176;27.548;2024-03-17T00:17:53;13.38;;;6.88;;
48805;SDS011;34625;47.176;27.548;2024-03-17T00:20:20;12.40;;;7.57;;
48805;SDS011;34625;47.176;27.548;2024-03-17T00:22:47;19.75;;;8.75;;
48805;SDS011;34625;47.176;27.548;2024-03-17T00:25:14;15.73;;;6.90;;
48805;SDS011;34625;47.176;27.548;2024-03-17T00:27:40;13.70;;;7.63;;
48805;SDS011;34625;47.176;27.548;2024-03-17T00:30:10;11.38;;;7.78;;
48805;SDS011;34625;47.176;27.548;2024-03-17T00:32:41;10.18;;;7.15;;
48805;SDS011;34625;47.176;27.548;2024-03-17T00:35:08;10.10;;;6.82;;
48805;SDS011;34625;47.176;27.548;2024-03-17T00:37:35;13.15;;;7.43;;
48805;SDS011;34625;47.176;27.548;2024-03-17T00:40:03;11.13;;;7.35;;
48805;SDS011;34625;47.176;27.548;2024-03-17T00:42:31;11.00;;;6.88;;
48805;SDS011;34625;47.176;27.548;2024-03-17T00:44:58;11.60;;;6.97;;
48805;SDS011;34625;47.176;27.548;2024-03-17T00:47:31;14.15;;;7.57;;
48805;SDS011;34625;47.176;27.548;2024-03-17T00:49:57;11.73;;;8.05;;
48805;SDS011;34625;47.176;27.548;2024-03-17T00:52:24;13.55;;;8.52;;
48805;SDS011;34625;47.176;27.548;2024-03-17T00:54:50;13.57;;;8.23;;
48805;SDS011;34625;47.176;27.548;2024-03-17T00:57:16;13.15;;;8.73;;
48805;SDS011;34625;47.176;27.548;2024-03-17T00:59:43;15.55;;;9.40;;
48805;SDS011;34625;47.176;27.548;2024-03-17T01:02:11;15.68;;;9.65;;
48805;SDS011;34625;47.176;27.548;2024-03-17T01:04:44;15.27;;;9.57;;
48805;SDS011;34625;47.176;27.548;2024-03-17T01:07:11;13.50;;;8.50;;
48805;SDS011;34625;47.176;27.548;2024-03-17T01:09:38;13.07;;;8.93;;
48805;SDS011;34625;47.176;27.548;2024-03-17T01:12:05;16.42;;;9.55;;
48805;SDS011;34625;47.176;27.548;2024-03-17T01:14:31;16.83;;;9.73;;
48805;SDS011;34625;47.176;27.548;2024-03-17T01:16:59;14.48;;;9.25;;
48805;SDS011;34625;47.176;27.548;2024-03-17T01:19:27;15.52;;;9.02;;
48805;SDS011;34625;47.176;27.548;2024-03-17T01:21:53;17.25;;;10.52;;
48805;SDS011;34625;47.176;27.548;2024-03-17T01:24:20;15.77;;;10.43;;
48805;SDS011;34625;47.176;27.548;2024-03-17T01:26:46;15.75;;;10.02;;
48805;SDS011;34625;47.176;27.548;2024-03-17T01:29:13;18.35;;;10.52;;
48805;SDS011;34625;47.176;27.548;2024-03-17T01:31:39;14.63;;;9.10;;
48805;SDS011;34625;47.176;27.548;2024-03-17T01:34:06;13.23;;;8.85;;
48805;SDS011;34625;47.176;27.548;2024-03-17T01:36:32;14.57;;;8.52;;
48805;SDS011;34625;47.176;27.548;2024-03-17T01:38:59;15.43;;;8.68;;
48805;SDS011;34625;47.176;27.548;2024-03-17T01:41:27;11.88;;;7.63;;
48805;SDS011;34625;47.176;27.548;2024-03-17T01:43:54;15.30;;;8.80;;
48805;SDS011;34625;47.176;27.548;2024-03-17T01:46:20;15.23;;;8.80;;
48805;SDS011;34625;47.176;27.548;2024-03-17T01:48:47;13.07;;;8.52;;
48805;SDS011;34625;47.176;27.548;2024-03-17T01:51:13;15.68;;;8.40;;
48805;SDS011;34625;47.176;27.548;2024-03-17T01:53:41;12.93;;;8.05;;
48805;SDS011;34625;47.176;27.548;2024-03-17T01:56:09;11.30;;;7.68;;
48805;SDS011;34625;47.176;27.548;2024-03-17T01:58:37;15.10;;;7.53;;
48805;SDS011;34625;47.176;27.548;2024-03-17T02:01:04;12.68;;;7.57;;
48805;SDS011;34625;47.176;27.548;2024-03-17T02:03:30;15.55;;;7.05;;
48805;SDS011;34625;47.176;27.548;2024-03-17T02:05:58;13.32;;;7.50;;
48805;SDS011;34625;47.176;27.548;2024-03-17T02:08:25;11.38;;;7.10;;
48805;SDS011;34625;47.176;27.548;2024-03-17T02:10:55;11.32;;;7.82;;
48805;SDS011;34625;47.176;27.548;2024-03-17T02:13:21;10.77;;;7.53;;
48805;SDS011;34625;47.176;27.548;2024-03-17T02:15:48;10.18;;;7.15;;
48805;SDS011;34625;47.176;27.548;2024-03-17T02:18:15;11.77;;;7.47;;
48805;SDS011;34625;47.176;27.548;2024-03-17T02:20:42;12.55;;;7.18;;
48805;SDS011;34625;47.176;27.548;2024-03-17T02:23:23;8.93;;;6.28;;
48805;SDS011;34625;47.176;27.548;2024-03-17T02:25:52;10.38;;;7.55;;
48805;SDS011;34625;47.176;27.548;2024-03-17T02:28:18;10.75;;;6.32;;
48805;SDS011;34625;47.176;27.548;2024-03-17T02:30:45;10.38;;;7.55;;
48805;SDS011;34625;47.176;27.548;2024-03-17T02:33:11;10.80;;;7.10;;
48805;SDS011;34625;47.176;27.548;2024-03-17T02:35:38;11.20;;;7.07;;
48805;SDS011;34625;47.176;27.548;2024-03-17T02:38:04;10.23;;;7.03;;
48805;SDS011;34625;47.176;27.548;2024-03-17T02:40:33;13.00;;;7.18;;
48805;SDS011;34625;47.176;27.548;2024-03-17T02:42:59;8.00;;;5.80;;
48805;SDS011;34625;47.176;27.548;2024-03-17T02:45:26;10.80;;;7.22;;
48805;SDS011;34625;47.176;27.548;2024-03-17T02:47:52;9.40;;;6.40;;
48805;SDS011;34625;47.176;27.548;2024-03-17T02:50:19;10.60;;;7.13;;
48805;SDS011;34625;47.176;27.548;2024-03-17T02:52:45;12.38;;;7.03;;
48805;SDS011;34625;47.176;27.548;2024-03-17T02:55:12;11.82;;;7.15;;
48805;SDS011;34625;47.176;27.548;2024-03-17T02:57:38;11.55;;;7.50;;
48805;SDS011;34625;47.176;27.548;2024-03-17T03:00:06;10.38;;;6.35;;
48805;SDS011;34625;47.176;27.548;2024-03-17T03:02:38;11.50;;;6.93;;
48805;SDS011;34625;47.176;27.548;2024-03-17T03:05:05;10.65;;;7.47;;
48805;SDS011;34625;47.176;27.548;2024-03-17T03:07:31;11.07;;;7.53;;
48805;SDS011;34625;47.176;27.548;2024-03-17T03:09:58;10.75;;;7.38;;
48805;SDS011;34625;47.176;27.548;2024-03-17T03:12:24;11.88;;;6.82;;
48805;SDS011;34625;47.176;27.548;2024-03-17T03:14:52;12.30;;;7.18;;
48805;SDS011;34625;47.176;27.548;2024-03-17T03:17:18;11.23;;;7.45;;
48805;SDS011;34625;47.176;27.548;2024-03-17T03:19:46;11.48;;;6.55;;
48805;SDS011;34625;47.176;27.548;2024-03-17T03:22:12;11.75;;;7.65;;
48805;SDS011;34625;47.176;27.548;2024-03-17T03:24:39;11.55;;;7.30;;
48805;SDS011;34625;47.176;27.548;2024-03-17T03:27:05;12.48;;;7.57;;
48805;SDS011;34625;47.176;27.548;2024-03-17T03:29:31;11.93;;;7.25;;
48805;SDS011;34625;47.176;27.548;2024-03-17T03:31:58;10.98;;;6.95;;
48805;SDS011;34625;47.176;27.548;2024-03-17T03:34:25;15.18;;;8.38;;
48805;SDS011;34625;47.176;27.548;2024-03-17T03:36:51;13.35;;;7.68;;
48805;SDS011;34625;47.176;27.548;2024-03-17T03:39:18;13.05;;;7.18;;
48805;SDS011;34625;47.176;27.548;2024-03-17T03:41:45;11.95;;;7.50;;
48805;SDS011;34625;47.176;27.548;2024-03-17T03:44:11;10.38;;;7.15;;
48805;SDS011;34625;47.176;27.548;2024-03-17T03:46:38;10.45;;;7.63;;
48805;SDS011;34625;47.176;27.548;2024-03-17T03:49:05;13.23;;;7.50;;
48805;SDS011;34625;47.176;27.548;2024-03-17T03:51:32;12.63;;;7.43;;
48805;SDS011;34625;47.176;27.548;2024-03-17T03:53:58;11.32;;;7.40;;
48805;SDS011;34625;47.176;27.548;2024-03-17T03:56:25;10.80;;;7.32;;
48805;SDS011;34625;47.176;27.548;2024-03-17T03:58:51;14.65;;;7.85;;
48805;SDS011;34625;47.176;27.548;2024-03-17T04:01:18;14.32;;;8.23;;
48805;SDS011;34625;47.176;27.548;2024-03-17T04:03:47;12.77;;;7.63;;
48805;SDS011;34625;47.176;27.548;2024-03-17T04:06:14;13.70;;;8.32;;
48805;SDS011;34625;47.176;27.548;2024-03-17T04:08:41;13.68;;;7.85;;
48805;SDS011;34625;47.176;27.548;2024-03-17T04:11:09;12.07;;;7.72;;
48805;SDS011;34625;47.176;27.548;2024-03-17T04:13:36;12.60;;;7.75;;
48805;SDS011;34625;47.176;27.548;2024-03-17T04:16:06;11.13;;;7.82;;
48805;SDS011;34625;47.176;27.548;2024-03-17T04:18:33;11.82;;;7.13;;
48805;SDS011;34625;47.176;27.548;2024-03-17T04:21:01;13.95;;;8.40;;
48805;SDS011;34625;47.176;27.548;2024-03-17T04:23:34;12.15;;;7.82;;
48805;SDS011;34625;47.176;27.548;2024-03-17T04:26:01;12.15;;;8.25;;
48805;SDS011;34625;47.176;27.548;2024-03-17T04:28:28;13.27;;;8.27;;
48805;SDS011;34625;47.176;27.548;2024-03-17T04:31:04;12.15;;;7.50;;
48805;SDS011;34625;47.176;27.548;2024-03-17T04:33:31;15.57;;;8.90;;
48805;SDS011;34625;47.176;27.548;2024-03-17T04:35:58;12.80;;;7.55;;
48805;SDS011;34625;47.176;27.548;2024-03-17T04:38:25;9.32;;;5.68;;
48805;SDS011;34625;47.176;27.548;2024-03-17T04:40:52;5.43;;;4.05;;
48805;SDS011;34625;47.176;27.548;2024-03-17T04:43:29;4.07;;;3.15;;
48805;SDS011;34625;47.176;27.548;2024-03-17T04:46:03;3.05;;;2.60;;
48805;SDS011;34625;47.176;27.548;2024-03-17T04:48:32;3.67;;;2.85;;
48805;SDS011;34625;47.176;27.548;2024-03-17T04:50:59;3.65;;;2.50;;
48805;SDS011;34625;47.176;27.548;2024-03-17T04:53:26;3.40;;;2.60;;
48805;SDS011;34625;47.176;27.548;2024-03-17T04:56:03;10.75;;;7.53;;
48805;SDS011;34625;47.176;27.548;2024-03-17T04:58:33;4.72;;;3.10;;
48805;SDS011;34625;47.176;27.548;2024-03-17T05:01:08;9.30;;;4.82;;
48805;SDS011;34625;47.176;27.548;2024-03-17T05:03:35;7.60;;;5.13;;
48805;SDS011;34625;47.176;27.548;2024-03-17T05:06:04;7.45;;;5.20;;
48805;SDS011;34625;47.176;27.548;2024-03-17T05:08:32;8.27;;;5.60;;
48805;SDS011;34625;47.176;27.548;2024-03-17T05:11:03;9.32;;;6.25;;
48805;SDS011;34625;47.176;27.548;2024-03-17T05:13:33;11.95;;;6.68;;
48805;SDS011;34625;47.176;27.548;2024-03-17T05:16:00;14.15;;;9.07;;
48805;SDS011;34625;47.176;27.548;2024-03-17T05:18:27;16.35;;;8.68;;
48805;SDS011;34625;47.176;27.548;2024-03-17T05:20:59;13.85;;;8.95;;
48805;SDS011;34625;47.176;27.548;2024-03-17T05:23:27;13.25;;;8.88;;
48805;SDS011;34625;47.176;27.548;2024-03-17T05:25:54;15.10;;;8.95;;
48805;SDS011;34625;47.176;27.548;2024-03-17T05:28:21;13.32;;;8.48;;
48805;SDS011;34625;47.176;27.548;2024-03-17T05:30:47;15.35;;;9.32;;
48805;SDS011;34625;47.176;27.548;2024-03-17T05:33:16;15.07;;;8.50;;
48805;SDS011;34625;47.176;27.548;2024-03-17T05:35:59;16.05;;;9.80;;
48805;SDS011;34625;47.176;27.548;2024-03-17T05:38:27;16.70;;;9.15;;
48805;SDS011;34625;47.176;27.548;2024-03-17T05:40:58;15.65;;;9.80;;
48805;SDS011;34625;47.176;27.548;2024-03-17T05:43:29;18.60;;;8.57;;
48805;SDS011;34625;47.176;27.548;2024-03-17T05:45:59;10.23;;;5.28;;
48805;SDS011;34625;47.176;27.548;2024-03-17T05:48:31;5.63;;;3.72;;
48805;SDS011;34625;47.176;27.548;2024-03-17T05:51:00;5.05;;;3.55;;
48805;SDS011;34625;47.176;27.548;2024-03-17T05:53:28;6.43;;;3.08;;
48805;SDS011;34625;47.176;27.548;2024-03-17T05:55:54;17.45;;;9.52;;
48805;SDS011;34625;47.176;27.548;2024-03-17T05:58:21;17.52;;;9.40;;
48805;SDS011;34625;47.176;27.548;2024-03-17T06:00:48;24.50;;;12.40;;
48805;SDS011;34625;47.176;27.548;2024-03-17T06:03:14;6.72;;;4.90;;
48805;SDS011;34625;47.176;27.548;2024-03-17T06:05:43;6.15;;;4.28;;
48805;SDS011;34625;47.176;27.548;2024-03-17T06:08:12;7.00;;;5.15;;
48805;SDS011;34625;47.176;27.548;2024-03-17T06:10:42;7.80;;;5.28;;
48805;SDS011;34625;47.176;27.548;2024-03-17T06:13:09;6.80;;;5.13;;
48805;SDS011;34625;47.176;27.548;2024-03-17T06:15:41;8.00;;;5.15;;
48805;SDS011;34625;47.176;27.548;2024-03-17T06:18:08;7.43;;;5.43;;
48805;SDS011;34625;47.176;27.548;2024-03-17T06:20:39;8.38;;;5.85;;
48805;SDS011;34625;47.176;27.548;2024-03-17T06:23:07;6.95;;;5.47;;
48805;SDS011;34625;47.176;27.548;2024-03-17T06:25:44;7.93;;;5.55;;
48805;SDS011;34625;47.176;27.548;2024-03-17T06:28:12;9.38;;;6.47;;
48805;SDS011;34625;47.176;27.548;2024-03-17T06:30:42;9.15;;;6.35;;
48805;SDS011;34625;47.176;27.548;2024-03-17T06:33:11;9.43;;;5.55;;
48805;SDS011;34625;47.176;27.548;2024-03-17T06:35:37;7.05;;;5.10;;
48805;SDS011;34625;47.176;27.548;2024-03-17T06:38:04;6.97;;;5.53;;
48805;SDS011;34625;47.176;27.548;2024-03-17T06:40:30;6.70;;;5.63;;
48805;SDS011;34625;47.176;27.548;2024-03-17T06:42:57;7.43;;;5.10;;
48805;SDS011;34625;47.176;27.548;2024-03-17T06:45:23;8.35;;;5.50;;
48805;SDS011;34625;47.176;27.548;2024-03-17T06:47:50;8.80;;;5.80;;
48805;SDS011;34625;47.176;27.548;2024-03-17T06:50:17;7.30;;;5.47;;
48805;SDS011;34625;47.176;27.548;2024-03-17T06:52:43;13.60;;;8.48;;
48805;SDS011;34625;47.176;27.548;2024-03-17T06:55:09;16.65;;;10.10;;
48805;SDS011;34625;47.176;27.548;2024-03-17T06:57:37;14.77;;;9.75;;
48805;SDS011;34625;47.176;27.548;2024-03-17T07:00:04;17.25;;;10.40;;
48805;SDS011;34625;47.176;27.548;2024-03-17T07:02:31;19.67;;;11.45;;
48805;SDS011;34625;47.176;27.548;2024-03-17T07:04:58;20.13;;;11.88;;
48805;SDS011;34625;47.176;27.548;2024-03-17T07:07:28;18.02;;;11.40;;
48805;SDS011;34625;47.176;27.548;2024-03-17T07:09:54;18.85;;;11.25;;
48805;SDS011;34625;47.176;27.548;2024-03-17T07:12:21;19.35;;;11.25;;
48805;SDS011;34625;47.176;27.548;2024-03-17T07:14:49;19.23;;;11.77;;
48805;SDS011;34625;47.176;27.548;2024-03-17T07:17:17;18.35;;;11.00;;
48805;SDS011;34625;47.176;27.548;2024-03-17T07:19:43;20.25;;;11.63;;
48805;SDS011;34625;47.176;27.548;2024-03-17T07:22:10;16.88;;;11.32;;
48805;SDS011;34625;47.176;27.548;2024-03-17T07:24:36;18.95;;;11.43;;
48805;SDS011;34625;47.176;27.548;2024-03-17T07:27:03;23.08;;;11.07;;
48805;SDS011;34625;47.176;27.548;2024-03-17T07:29:30;19.55;;;10.95;;
48805;SDS011;34625;47.176;27.548;2024-03-17T07:31:56;19.15;;;11.05;;
48805;SDS011;34625;47.176;27.548;2024-03-17T07:34:22;18.08;;;11.07;;
48805;SDS011;34625;47.176;27.548;2024-03-17T07:36:49;16.98;;;11.07;;
48805;SDS011;34625;47.176;27.548;2024-03-17T07:39:15;16.67;;;10.20;;
48805;SDS011;34625;47.176;27.548;2024-03-17T07:41:44;16.85;;;10.77;;
48805;SDS011;34625;47.176;27.548;2024-03-17T07:44:11;18.05;;;10.48;;
48805;SDS011;34625;47.176;27.548;2024-03-17T07:46:37;18.50;;;11.70;;
48805;SDS011;34625;47.176;27.548;2024-03-17T07:49:04;16.10;;;10.07;;
48805;SDS011;34625;47.176;27.548;2024-03-17T07:51:31;17.80;;;11.05;;
48805;SDS011;34625;47.176;27.548;2024-03-17T07:53:59;17.10;;;11.00;;
48805;SDS011;34625;47.176;27.548;2024-03-17T07:56:26;20.50;;;11.98;;
48805;SDS011;34625;47.176;27.548;2024-03-17T07:58:53;17.10;;;10.13;;
48805;SDS011;34625;47.176;27.548;2024-03-17T08:01:19;14.70;;;9.85;;
48805;SDS011;34625;47.176;27.548;2024-03-17T08:03:46;12.45;;;8.35;;
48805;SDS011;34625;47.176;27.548;2024-03-17T08:06:19;17.00;;;10.07;;
48805;SDS011;34625;47.176;27.548;2024-03-17T08:08:46;16.10;;;9.88;;
48805;SDS011;34625;47.176;27.548;2024-03-17T08:11:12;21.38;;;10.40;;
48805;SDS011;34625;47.176;27.548;2024-03-17T08:13:39;19.52;;;11.32;;
48805;SDS011;34625;47.176;27.548;2024-03-17T08:16:06;17.90;;;10.48;;
48805;SDS011;34625;47.176;27.548;2024-03-17T08:18:36;18.30;;;10.27;;
48805;SDS011;34625;47.176;27.548;2024-03-17T08:21:03;17.23;;;10.23;;
48805;SDS011;34625;47.176;27.548;2024-03-17T08:23:32;18.65;;;11.13;;
48805;SDS011;34625;47.176;27.548;2024-03-17T08:25:59;20.52;;;10.70;;
48805;SDS011;34625;47.176;27.548;2024-03-17T08:28:26;16.42;;;9.88;;
48805;SDS011;34625;47.176;27.548;2024-03-17T08:30:53;16.00;;;9.75;;
48805;SDS011;34625;47.176;27.548;2024-03-17T08:33:20;21.48;;;11.40;;
48805;SDS011;34625;47.176;27.548;2024-03-17T08:35:58;20.83;;;11.10;;
48805;SDS011;34625;47.176;27.548;2024-03-17T08:38:25;16.40;;;9.30;;
48805;SDS011;34625;47.176;27.548;2024-03-17T08:40:53;18.55;;;10.85;;
48805;SDS011;34625;47.176;27.548;2024-03-17T08:43:20;16.55;;;10.05;;
48805;SDS011;34625;47.176;27.548;2024-03-17T08:46:00;20.45;;;10.75;;
48805;SDS011;34625;47.176;27.548;2024-03-17T08:48:30;18.73;;;10.45;;
48805;SDS011;34625;47.176;27.548;2024-03-17T08:50:57;17.45;;;10.75;;
48805;SDS011;34625;47.176;27.548;2024-03-17T08:53:24;15.00;;;10.88;;
48805;SDS011;34625;47.176;27.548;2024-03-17T08:55:50;17.58;;;10.57;;
48805;SDS011;34625;47.176;27.548;2024-03-17T08:58:17;14.05;;;8.40;;
48805;SDS011;34625;47.176;27.548;2024-03-17T09:00:44;14.10;;;7.43;;
48805;SDS011;34625;47.176;27.548;2024-03-17T09:03:10;15.40;;;9.65;;
48805;SDS011;34625;47.176;27.548;2024-03-17T09:05:39;14.77;;;8.88;;
48805;SDS011;34625;47.176;27.548;2024-03-17T09:08:06;7.47;;;5.60;;
48805;SDS011;34625;47.176;27.548;2024-03-17T09:10:42;10.65;;;6.10;;
48805;SDS011;34625;47.176;27.548;2024-03-17T09:13:13;8.52;;;3.80;;
48805;SDS011;34625;47.176;27.548;2024-03-17T09:15:49;14.50;;;8.52;;
48805;SDS011;34625;47.176;27.548;2024-03-17T09:18:16;9.15;;;5.78;;
48805;SDS011;34625;47.176;27.548;2024-03-17T09:20:43;7.88;;;4.30;;
48805;SDS011;34625;47.176;27.548;2024-03-17T09:23:09;6.55;;;3.47;;
48805;SDS011;34625;47.176;27.548;2024-03-17T09:25:36;5.38;;;3.22;;
48805;SDS011;34625;47.176;27.548;2024-03-17T09:28:02;13.65;;;9.13;;
48805;SDS011;34625;47.176;27.548;2024-03-17T09:30:29;6.47;;;4.30;;
48805;SDS011;34625;47.176;27.548;2024-03-17T09:32:55;7.47;;;5.22;;
48805;SDS011;34625;47.176;27.548;2024-03-17T09:35:22;10.95;;;5.93;;
48805;SDS011;34625;47.176;27.548;2024-03-17T09:37:48;9.75;;;6.75;;
48805;SDS011;34625;47.176;27.548;2024-03-17T09:40:15;8.73;;;6.18;;
48805;SDS011;34625;47.176;27.548;2024-03-17T09:42:41;9.68;;;6.30;;
48805;SDS011;34625;47.176;27.548;2024-03-17T09:45:09;10.75;;;7.22;;
48805;SDS011;34625;47.176;27.548;2024-03-17T09:47:36;10.75;;;8.02;;
48805;SDS011;34625;47.176;27.548;2024-03-17T09:50:05;12.40;;;7.80;;
48805;SDS011;34625;47.176;27.548;2024-03-17T09:52:39;12.98;;;8.05;;
48805;SDS011;34625;47.176;27.548;2024-03-17T09:55:09;10.35;;;7.47;;
48805;SDS011;34625;47.176;27.548;2024-03-17T10:00:09;9.65;;;6.13;;
48805;SDS011;34625;47.176;27.548;2024-03-17T10:02:43;9.13;;;6.00;;
48805;SDS011;34625;47.176;27.548;2024-03-17T10:05:19;8.45;;;5.63;;
48805;SDS011;34625;47.176;27.548;2024-03-17T10:07:47;13.30;;;6.85;;
48805;SDS011;34625;47.176;27.548;2024-03-17T10:10:14;8.95;;;5.55;;
48805;SDS011;34625;47.176;27.548;2024-03-17T10:12:48;7.35;;;4.85;;
48805;SDS011;34625;47.176;27.548;2024-03-17T10:15:17;9.25;;;6.40;;
48805;SDS011;34625;47.176;27.548;2024-03-17T10:17:43;7.03;;;3.90;;
48805;SDS011;34625;47.176;27.548;2024-03-17T10:20:11;5.40;;;3.83;;
48805;SDS011;34625;47.176;27.548;2024-03-17T10:22:38;8.20;;;6.20;;
48805;SDS011;34625;47.176;27.548;2024-03-17T10:25:05;6.00;;;4.28;;
48805;SDS011;34625;47.176;27.548;2024-03-17T10:27:35;7.35;;;4.38;;
48805;SDS011;34625;47.176;27.548;2024-03-17T10:30:01;7.50;;;4.60;;
48805;SDS011;34625;47.176;27.548;2024-03-17T10:32:28;6.75;;;4.32;;
48805;SDS011;34625;47.176;27.548;2024-03-17T10:34:54;5.95;;;3.97;;
48805;SDS011;34625;47.176;27.548;2024-03-17T10:37:22;7.50;;;5.22;;
48805;SDS011;34625;47.176;27.548;2024-03-17T10:39:51;7.28;;;4.70;;
48805;SDS011;34625;47.176;27.548;2024-03-17T10:42:29;9.93;;;6.40;;
48805;SDS011;34625;47.176;27.548;2024-03-17T10:44:57;8.70;;;4.95;;
48805;SDS011;34625;47.176;27.548;2024-03-17T10:47:24;7.68;;;4.70;;
48805;SDS011;34625;47.176;27.548;2024-03-17T10:49:51;9.85;;;5.43;;
48805;SDS011;34625;47.176;27.548;2024-03-17T10:52:19;10.77;;;6.07;;
48805;SDS011;34625;47.176;27.548;2024-03-17T10:54:50;10.38;;;6.43;;
48805;SDS011;34625;47.176;27.548;2024-03-17T11:00:03;5.95;;;4.25;;
48805;SDS011;34625;47.176;27.548;2024-03-17T11:02:31;6.78;;;5.13;;
48805;SDS011;34625;47.176;27.548;2024-03-17T11:05:05;9.88;;;5.88;;
48805;SDS011;34625;47.176;27.548;2024-03-17T11:07:34;6.45;;;4.55;;
48805;SDS011;34625;47.176;27.548;2024-03-17T11:10:03;8.32;;;4.35;;
48805;SDS011;34625;47.176;27.548;2024-03-17T11:17:56;9.85;;;5.35;;
48805;SDS011;34625;47.176;27.548;2024-03-17T11:20:42;6.28;;;5.22;;
48805;SDS011;34625;47.176;27.548;2024-03-17T11:23:09;10.05;;;6.35;;
48805;SDS011;34625;47.176;27.548;2024-03-17T11:28:06;8.23;;;4.55;;
48805;SDS011;34625;47.176;27.548;2024-03-17T11:30:41;8.30;;;5.10;;
48805;SDS011;34625;47.176;27.548;2024-03-17T11:38:55;7.47;;;3.92;;
48805;SDS011;34625;47.176;27.548;2024-03-17T11:47:05;6.28;;;4.25;;
48805;SDS011;34625;47.176;27.548;2024-03-17T11:52:05;18.50;;;7.10;;
48805;SDS011;34625;47.176;27.548;2024-03-17T11:54:35;9.45;;;6.00;;
48805;SDS011;34625;47.176;27.548;2024-03-17T11:57:03;6.85;;;5.57;;
48805;SDS011;34625;47.176;27.548;2024-03-17T11:59:31;14.55;;;6.00;;
48805;SDS011;34625;47.176;27.548;2024-03-17T12:01:58;41.17;;;10.52;;
48805;SDS011;34625;47.176;27.548;2024-03-17T12:04:24;15.38;;;7.55;;
48805;SDS011;34625;47.176;27.548;2024-03-17T12:06:54;15.23;;;6.95;;
48805;SDS011;34625;47.176;27.548;2024-03-17T12:09:22;8.13;;;4.40;;
48805;SDS011;34625;47.176;27.548;2024-03-17T12:12:02;7.22;;;4.38;;
48805;SDS011;34625;47.176;27.548;2024-03-17T12:14:32;5.68;;;4.30;;
48805;SDS011;34625;47.176;27.548;2024-03-17T12:17:00;5.32;;;3.80;;
48805;SDS011;34625;47.176;27.548;2024-03-17T12:19:30;7.47;;;3.95;;
48805;SDS011;34625;47.176;27.548;2024-03-17T12:21:57;3.53;;;3.22;;
48805;SDS011;34625;47.176;27.548;2024-03-17T12:24:28;6.32;;;3.83;;
48805;SDS011;34625;47.176;27.548;2024-03-17T12:26:56;5.88;;;4.00;;
48805;SDS011;34625;47.176;27.548;2024-03-17T12:29:39;8.38;;;3.50;;
48805;SDS011;34625;47.176;27.548;2024-03-17T12:32:10;7.35;;;4.32;;
48805;SDS011;34625;47.176;27.548;2024-03-17T12:34:39;5.50;;;4.18;;
48805;SDS011;34625;47.176;27.548;2024-03-17T12:37:07;7.88;;;4.32;;
48805;SDS011;34625;47.176;27.548;2024-03-17T12:39:36;7.00;;;5.13;;
48805;SDS011;34625;47.176;27.548;2024-03-17T12:44:47;8.70;;;4.68;;
48805;SDS011;34625;47.176;27.548;2024-03-17T12:47:17;9.80;;;4.85;;
48805;SDS011;34625;47.176;27.548;2024-03-17T12:49:48;8.98;;;5.50;;
48805;SDS011;34625;47.176;27.548;2024-03-17T12:52:26;7.85;;;5.47;;
48805;SDS011;34625;47.176;27.548;2024-03-17T12:55:06;6.20;;;4.82;;
48805;SDS011;34625;47.176;27.548;2024-03-17T13:00:45;4.15;;;3.15;;
48805;SDS011;34625;47.176;27.548;2024-03-17T13:03:35;10.38;;;4.93;;
48805;SDS011;34625;47.176;27.548;2024-03-17T13:06:01;5.45;;;4.15;;
48805;SDS011;34625;47.176;27.548;2024-03-17T13:08:31;5.15;;;3.58;;
48805;SDS011;34625;47.176;27.548;2024-03-17T13:11:01;9.15;;;3.83;;
48805;SDS011;34625;47.176;27.548;2024-03-17T13:13:30;4.63;;;3.03;;
48805;SDS011;34625;47.176;27.548;2024-03-17T13:15:57;5.68;;;3.85;;
48805;SDS011;34625;47.176;27.548;2024-03-17T13:18:24;5.80;;;3.30;;
48805;SDS011;34625;47.176;27.548;2024-03-17T13:20:51;7.47;;;4.25;;
48805;SDS011;34625;47.176;27.548;2024-03-17T13:23:19;6.07;;;3.58;;
48805;SDS011;34625;47.176;27.548;2024-03-17T13:25:50;6.05;;;3.72;;
48805;SDS011;34625;47.176;27.548;2024-03-17T13:28:16;5.75;;;3.83;;
48805;SDS011;34625;47.176;27.548;2024-03-17T13:30:43;5.80;;;4.60;;
48805;SDS011;34625;47.176;27.548;2024-03-17T13:33:09;4.45;;;3.40;;
48805;SDS011;34625;47.176;27.548;2024-03-17T13:35:41;5.53;;;3.63;;
48805;SDS011;34625;47.176;27.548;2024-03-17T13:38:08;6.53;;;3.15;;
48805;SDS011;34625;47.176;27.548;2024-03-17T13:40:36;4.47;;;3.10;;
48805;SDS011;34625;47.176;27.548;2024-03-17T13:43:08;3.97;;;3.45;;
48805;SDS011;34625;47.176;27.548;2024-03-17T13:45:41;8.77;;;4.07;;
48805;SDS011;34625;47.176;27.548;2024-03-17T13:48:14;5.03;;;3.15;;
48805;SDS011;34625;47.176;27.548;2024-03-17T13:50:41;5.90;;;3.25;;
48805;SDS011;34625;47.176;27.548;2024-03-17T13:53:10;4.97;;;3.40;;
48805;SDS011;34625;47.176;27.548;2024-03-17T13:55:36;3.97;;;3.40;;
48805;SDS011;34625;47.176;27.548;2024-03-17T13:58:03;3.35;;;3.00;;
48805;SDS011;34625;47.176;27.548;2024-03-17T14:00:30;3.40;;;3.10;;
48805;SDS011;34625;47.176;27.548;2024-03-17T14:02:56;6.25;;;3.53;;
48805;SDS011;34625;47.176;27.548;2024-03-17T14:05:24;5.72;;;3.03;;
48805;SDS011;34625;47.176;27.548;2024-03-17T14:07:52;4.32;;;3.50;;
48805;SDS011;34625;47.176;27.548;2024-03-17T14:10:19;4.65;;;3.45;;
48805;SDS011;34625;47.176;27.548;2024-03-17T14:12:46;7.15;;;2.90;;
48805;SDS011;34625;47.176;27.548;2024-03-17T14:15:13;6.15;;;3.97;;
48805;SDS011;34625;47.176;27.548;2024-03-17T14:17:40;4.10;;;2.97;;
48805;SDS011;34625;47.176;27.548;2024-03-17T14:20:07;4.43;;;3.00;;
48805;SDS011;34625;47.176;27.548;2024-03-17T14:22:38;5.60;;;4.75;;
48805;SDS011;34625;47.176;27.548;2024-03-17T14:25:05;11.05;;;5.28;;
48805;SDS011;34625;47.176;27.548;2024-03-17T14:27:32;5.72;;;4.15;;
48805;SDS011;34625;47.176;27.548;2024-03-17T14:30:00;4.25;;;2.58;;
48805;SDS011;34625;47.176;27.548;2024-03-17T14:32:26;4.72;;;2.92;;
48805;SDS011;34625;47.176;27.548;2024-03-17T14:34:53;5.97;;;4.20;;
48805;SDS011;34625;47.176;27.548;2024-03-17T14:37:20;7.65;;;4.93;;
48805;SDS011;34625;47.176;27.548;2024-03-17T14:39:48;10.02;;;6.00;;
48805;SDS011;34625;47.176;27.548;2024-03-17T14:42:15;7.10;;;5.25;;
48805;SDS011;34625;47.176;27.548;2024-03-17T14:44:41;7.90;;;5.63;;
48805;SDS011;34625;47.176;27.548;2024-03-17T14:47:08;9.00;;;5.68;;
48805;SDS011;34625;47.176;27.548;2024-03-17T14:49:36;11.27;;;6.43;;
48805;SDS011;34625;47.176;27.548;2024-03-17T14:52:02;5.45;;;3.70;;
48805;SDS011;34625;47.176;27.548;2024-03-17T14:54:31;5.95;;;2.90;;
48805;SDS011;34625;47.176;27.548;2024-03-17T14:56:57;5.75;;;2.95;;
48805;SDS011;34625;47.176;27.548;2024-03-17T14:59:24;2.95;;;2.00;;
48805;SDS011;34625;47.176;27.548;2024-03-17T15:01:50;4.57;;;3.00;;
48805;SDS011;34625;47.176;27.548;2024-03-17T15:04:17;5.13;;;3.63;;